Time;durP1;ratioP1;P1;durP2;ratioP2;P2;SDS_P1;SDS_P2;PMS_P1;PMS_P2;Temp;Humidity;BMP_temperature;BMP_pressure;BME280_temperature;BME280_humidity;BME280_pressure;Samples;Min_cycle;Max_cycle;Signal;HPM_P1;HPM_P2
2021/01/21 00:00:54;;;;;;;5.68;5.18;;;;;;;13.84;53.43;98394.75;4925438;29;20083;-84
2021/01/21 00:03:20;;;;;;;5.80;4.90;;;;;;;14.03;52.69;98391.41;4924744;29;20466;-88
2021/01/21 00:05:45;;;;;;;4.20;3.72;;;;;;;13.74;53.31;98365.53;4928015;29;20051;-90
2021/01/21 00:08:10;;;;;;;4.93;3.58;;;;;;;13.89;53.08;98361.94;4929150;29;20068;-88
2021/01/21 00:10:36;;;;;;;3.90;3.53;;;;;;;13.86;53.23;98346.09;4930323;29;20610;-86
2021/01/21 00:13:01;;;;;;;6.15;5.70;;;;;;;13.88;52.97;98340.34;4926223;29;20395;-87
2021/01/21 00:15:27;;;;;;;4.75;4.32;;;;;;;13.82;53.32;98344.19;4930524;29;20603;-88
2021/01/21 00:17:52;;;;;;;4.53;4.13;;;;;;;13.85;53.05;98330.78;4928565;29;20039;-90
2021/01/21 00:20:18;;;;;;;3.72;3.38;;;;;;;13.90;53.02;98322.59;4929557;29;20036;-86
2021/01/21 00:22:43;;;;;;;4.03;3.72;;;;;;;13.94;52.81;98323.63;4929377;29;20732;-87
2021/01/21 00:25:09;;;;;;;4.60;3.08;;;;;;;13.79;53.37;98310.06;4928421;29;20565;-87
2021/01/21 00:27:34;;;;;;;4.50;4.10;;;;;;;13.81;53.17;98301.56;4927719;29;20046;-89
2021/01/21 00:30:00;;;;;;;3.80;3.03;;;;;;;13.98;53.29;98307.53;4931055;29;20399;-88
2021/01/21 00:32:25;;;;;;;4.93;4.53;;;;;;;13.92;53.19;98284.06;4929927;29;20036;-90
2021/01/21 00:34:50;;;;;;;3.20;3.00;;;;;;;13.93;53.07;98289.25;4932043;29;20031;-86
2021/01/21 00:37:16;;;;;;;4.13;3.83;;;;;;;13.87;53.28;98267.66;4928429;29;20095;-89
2021/01/21 00:39:41;;;;;;;4.15;3.33;;;;;;;14.01;52.86;98265.97;4927499;29;20541;-85
2021/01/21 00:42:07;;;;;;;5.10;4.70;;;;;;;14.00;52.69;98238.94;4925659;29;20636;-86
2021/01/21 00:44:32;;;;;;;6.95;5.45;;;;;;;13.89;53.01;98238.97;4931517;29;20122;-87
2021/01/21 00:46:57;;;;;;;5.15;4.65;;;;;;;13.97;52.85;98227.44;4927355;29;20035;-86
2021/01/21 00:49:26;;;;;;;5.55;5.10;;;;;;;13.83;53.44;98215.53;4933261;29;20036;-86
2021/01/21 00:51:51;;;;;;;4.75;4.25;;;;;;;13.93;52.92;98220.94;4929571;29;20039;-87
2021/01/21 00:54:16;;;;;;;5.35;4.35;;;;;;;13.91;53.30;98203.97;4928265;29;20043;-86
2021/01/21 00:56:42;;;;;;;5.78;3.85;;;;;;;13.99;53.05;98204.50;4929032;29;20399;-87
2021/01/21 00:59:08;;;;;;;6.85;4.35;;;;;;;14.07;53.54;98191.03;4926103;29;20043;-86
2021/01/21 01:01:33;;;;;;;7.03;4.30;;;;;;;14.12;53.56;98191.00;4926104;29;20451;-84
2021/01/21 01:03:58;;;;;;;3.78;3.35;;;;;;;14.09;54.35;98179.81;4927767;29;20067;-88
2021/01/21 01:06:24;;;;;;;3.15;2.95;;;;;;;13.92;54.88;98175.56;4931638;29;20517;-85
2021/01/21 01:08:49;;;;;;;4.65;4.35;;;;;;;13.92;55.82;98164.63;4926570;29;20052;-86
2021/01/21 01:11:15;;;;;;;3.25;2.67;;;;;;;13.57;57.31;98163.78;4929886;29;20032;-85
2021/01/21 01:13:40;;;;;;;5.85;4.90;;;;;;;13.78;58.26;98150.81;4927760;29;20039;-84
2021/01/21 01:16:06;;;;;;;3.30;3.03;;;;;;;13.79;58.84;98143.41;4928598;29;20035;-85
2021/01/21 01:18:31;;;;;;;3.85;3.50;;;;;;;13.28;60.09;98147.25;4926617;29;20035;-85
2021/01/21 01:20:57;;;;;;;2.60;2.40;;;;;;;13.31;60.39;98137.69;4912626;29;20040;-84
2021/01/21 01:23:22;;;;;;;4.00;3.60;;;;;;;13.16;61.15;98144.88;4929058;29;20031;-89
2021/01/21 01:25:48;;;;;;;6.43;4.68;;;;;;;13.10;61.46;98159.63;4930607;29;20042;-86
2021/01/21 01:28:13;;;;;;;4.47;3.50;;;;;;;13.08;61.35;98138.09;4919430;29;20035;-86
2021/01/21 01:30:38;;;;;;;7.95;2.80;;;;;;;13.07;61.40;98141.09;4926536;29;20047;-85
2021/01/21 01:33:04;;;;;;;6.15;4.47;;;;;;;13.08;62.04;98137.25;4911406;29;20028;-86
2021/01/21 01:35:35;;;;;;;6.70;4.55;;;;;;;13.08;62.10;98137.25;4930173;29;20146;-84
2021/01/21 01:38:00;;;;;;;4.97;4.40;;;;;;;12.98;62.36;98123.69;4921616;29;20036;-85
2021/01/21 01:40:28;;;;;;;7.63;7.03;;;;;;;12.97;62.58;98130.22;4929107;29;20034;-84
2021/01/21 01:42:56;;;;;;;5.10;4.75;;;;;;;13.15;61.91;98120.59;4926272;29;20139;-84
2021/01/21 01:45:26;;;;;;;4.05;3.53;;;;;;;13.02;62.28;98111.94;4926457;29;20538;-85
2021/01/21 01:47:52;;;;;;;5.45;4.95;;;;;;;12.99;62.15;98096.13;4930954;29;20067;-84
2021/01/21 01:50:17;;;;;;;5.32;3.40;;;;;;;13.14;61.67;98084.28;4926758;29;20040;-85
2021/01/21 01:52:43;;;;;;;4.68;4.25;;;;;;;13.08;61.99;98083.53;4918165;29;20036;-88
2021/01/21 01:55:16;;;;;;;5.32;4.45;;;;;;;13.13;62.42;98101.78;4927160;29;20039;-87
2021/01/21 01:57:43;;;;;;;8.75;7.93;;;;;;;12.98;62.41;98077.31;4943170;29;20067;-87
2021/01/21 02:00:09;;;;;;;6.55;6.07;;;;;;;13.16;61.61;98068.47;4928366;29;20043;-87
2021/01/21 02:02:34;;;;;;;7.43;5.03;;;;;;;13.18;61.27;98071.72;4914992;29;20402;-85
2021/01/21 02:05:01;;;;;;;5.10;4.55;;;;;;;13.26;60.95;98046.53;4925868;29;20035;-88
2021/01/21 02:07:26;;;;;;;7.70;6.75;;;;;;;13.27;60.47;98036.47;4910790;29;20027;-86
2021/01/21 02:09:54;;;;;;;6.70;6.00;;;;;;;13.33;60.45;98038.09;4927624;29;20035;-86
2021/01/21 02:12:38;;;;;;;6.45;5.07;;;;;;;13.33;60.25;98010.78;4927644;29;20034;-85
2021/01/21 02:15:04;;;;;;;6.25;5.20;;;;;;;13.43;59.59;97996.25;4924054;29;20067;-86
2021/01/21 02:17:36;;;;;;;5.63;4.43;;;;;;;13.37;59.75;97994.66;4928565;29;20063;-85
2021/01/21 02:20:34;;;;;;;8.80;6.20;;;;;;;13.66;59.85;97991.94;4944095;29;20054;-86
2021/01/21 02:23:23;;;;;;;6.57;5.95;;;;;;;13.67;59.68;97988.13;4928082;29;20039;-86
2021/01/21 02:25:58;;;;;;;6.30;5.70;;;;;;;13.38;59.69;97988.09;4923355;29;20395;-85
2021/01/21 02:29:06;;;;;;;7.85;7.20;;;;;;;13.96;58.77;97974.44;4928415;29;20044;-86
2021/01/21 02:31:45;;;;;;;6.50;3.75;;;;;;;13.64;59.69;97968.75;4911477;29;20097;-84
2021/01/21 02:34:17;;;;;;;4.70;3.55;;;;;;;13.50;60.14;97963.13;4924342;29;20055;-85
2021/01/21 02:36:51;;;;;;;5.22;3.95;;;;;;;13.53;61.73;97965.28;4933313;29;20523;-86
2021/01/21 02:39:19;;;;;;;6.65;6.05;;;;;;;13.74;61.60;97963.19;4929541;29;20063;-85
2021/01/21 02:41:44;;;;;;;10.18;2.95;;;;;;;13.69;61.80;97953.13;4925142;29;20024;-84
2021/01/21 02:44:10;;;;;;;4.50;3.17;;;;;;;13.54;62.09;97942.38;4926973;29;20487;-85
2021/01/21 02:46:35;;;;;;;6.60;5.82;;;;;;;13.50;62.09;97939.41;4928671;29;20047;-84
2021/01/21 02:49:00;;;;;;;4.82;4.18;;;;;;;13.35;63.10;97934.09;4928032;29;20526;-84
2021/01/21 02:51:39;;;;;;;6.43;4.63;;;;;;;13.28;64.43;97939.00;4930170;29;20046;-83
2021/01/21 02:54:41;;;;;;;5.28;4.68;;;;;;;13.28;64.86;97933.56;4922378;29;20063;-83
2021/01/21 02:57:13;;;;;;;7.15;6.38;;;;;;;13.22;64.85;97930.88;4929163;29;20067;-84
2021/01/21 02:59:41;;;;;;;6.43;4.40;;;;;;;13.18;65.17;97943.47;4926323;29;20103;-83
2021/01/21 03:02:08;;;;;;;5.90;5.30;;;;;;;13.00;66.29;97935.97;4927816;29;20036;-83
2021/01/21 03:04:45;;;;;;;7.60;4.88;;;;;;;13.24;65.91;97942.31;4924776;29;20060;-82
2021/01/21 03:07:11;;;;;;;6.15;5.03;;;;;;;13.07;66.73;97945.44;4921725;29;20793;-82
2021/01/21 03:09:42;;;;;;;5.70;4.78;;;;;;;13.15;66.68;97951.41;4928773;29;20490;-81
2021/01/21 03:12:25;;;;;;;8.43;7.72;;;;;;;13.23;66.64;97948.88;4926512;29;20494;-82
2021/01/21 03:14:53;;;;;;;5.50;5.07;;;;;;;13.30;66.42;97936.81;4927574;29;20427;-82
2021/01/21 03:17:20;;;;;;;7.57;6.45;;;;;;;13.06;67.17;97930.16;4928757;29;20028;-82
2021/01/21 03:19:46;;;;;;;6.38;4.57;;;;;;;12.95;67.67;97930.56;4928708;29;20393;-82
2021/01/21 03:22:11;;;;;;;4.72;3.95;;;;;;;13.08;67.30;97933.44;4915364;29;20039;-82
2021/01/21 03:24:37;;;;;;;4.30;3.90;;;;;;;13.12;67.35;97941.88;4929759;29;20040;-82
2021/01/21 03:27:02;;;;;;;4.82;4.47;;;;;;;13.07;67.49;97945.44;4944449;29;20036;-82
2021/01/21 03:29:28;;;;;;;5.57;3.42;;;;;;;13.03;67.74;98009.06;4933400;29;20367;-83
2021/01/21 03:31:54;;;;;;;7.75;3.75;;;;;;;12.96;68.07;98057.66;4930742;29;20498;-86
2021/01/21 03:34:19;;;;;;;11.98;3.78;;;;;;;12.66;66.37;98062.16;4928873;29;20051;-85
2021/01/21 03:36:45;;;;;;;14.55;4.43;;;;;;;11.90;64.00;98061.25;4923832;29;20063;-83
2021/01/21 03:39:10;;;;;;;11.32;4.13;;;;;;;12.04;63.30;98056.88;4924796;29;20044;-83
2021/01/21 03:41:36;;;;;;;14.35;4.60;;;;;;;11.62;63.12;98041.66;4930335;29;20031;-84
2021/01/21 03:44:01;;;;;;;16.65;4.75;;;;;;;11.55;62.24;98058.25;4931069;29;20391;-84
2021/01/21 03:46:27;;;;;;;13.52;4.63;;;;;;;11.65;62.41;98041.13;4929686;29;20410;-84
2021/01/21 03:48:52;;;;;;;22.35;5.85;;;;;;;11.55;62.39;98052.00;4931419;29;20728;-87
2021/01/21 03:51:18;;;;;;;17.73;6.18;;;;;;;11.27;62.59;98056.88;4930670;29;20040;-85
2021/01/21 03:53:43;;;;;;;22.95;6.18;;;;;;;11.18;62.60;98078.34;4928508;29;20046;-84
2021/01/21 03:56:08;;;;;;;22.27;6.88;;;;;;;11.25;63.22;98069.94;4931617;29;20044;-84
2021/01/21 03:58:34;;;;;;;29.13;5.85;;;;;;;11.24;63.25;98077.25;4931218;29;20491;-84
2021/01/21 04:00:59;;;;;;;26.67;6.20;;;;;;;11.26;62.56;98099.59;4927974;29;20036;-83
2021/01/21 04:03:24;;;;;;;34.03;6.70;;;;;;;11.01;63.54;98113.09;4930383;29;20111;-84
2021/01/21 04:05:50;;;;;;;36.00;7.43;;;;;;;11.29;63.52;98123.53;4928146;29;20035;-84
2021/01/21 04:08:16;;;;;;;35.47;8.38;;;;;;;11.15;64.16;98108.78;4927930;29;20058;-85
2021/01/21 04:10:42;;;;;;;37.47;8.63;;;;;;;11.06;64.23;98113.94;4928353;29;20035;-81
2021/01/21 04:13:07;;;;;;;41.33;9.63;;;;;;;11.37;63.69;98134.97;4932219;29;20079;-84
2021/01/21 04:15:32;;;;;;;43.15;9.90;;;;;;;11.18;63.93;98118.31;4930751;29;20391;-84
2021/01/21 04:17:58;;;;;;;44.50;11.65;;;;;;;11.26;63.82;98134.97;4929962;29;20114;-82
2021/01/21 04:20:23;;;;;;;43.83;8.82;;;;;;;11.19;63.49;98147.19;4926949;29;20438;-83
2021/01/21 04:22:48;;;;;;;36.63;9.93;;;;;;;11.18;63.46;98154.50;4915197;29;20089;-84
2021/01/21 04:25:14;;;;;;;38.97;9.82;;;;;;;10.93;63.08;98171.53;4927163;29;20043;-84
2021/01/21 04:27:39;;;;;;;35.38;11.48;;;;;;;10.80;62.54;98182.88;4928286;29;20039;-84
2021/01/21 04:30:05;;;;;;;24.60;7.95;;;;;;;10.94;60.67;98189.50;4930925;29;20048;-86
2021/01/21 04:32:31;;;;;;;32.88;7.30;;;;;;;11.12;59.94;98220.84;4914823;29;20040;-84
2021/01/21 04:34:56;;;;;;;28.83;9.45;;;;;;;10.85;60.37;98234.59;4910515;29;20047;-84
2021/01/21 04:37:22;;;;;;;26.70;7.72;;;;;;;10.95;59.65;98229.19;4914800;29;20043;-87
2021/01/21 04:39:47;;;;;;;29.60;7.53;;;;;;;10.99;59.35;98240.38;4931800;29;20036;-84
2021/01/21 04:42:12;;;;;;;25.05;7.30;;;;;;;10.68;58.21;98249.16;4929739;29;20032;-83
2021/01/21 04:44:38;;;;;;;24.13;6.85;;;;;;;10.66;58.71;98264.91;4930334;29;20036;-85
2021/01/21 04:47:04;;;;;;;26.98;8.38;;;;;;;10.57;58.27;98258.31;4928288;29;20503;-84
2021/01/21 04:49:33;;;;;;;27.52;10.30;;;;;;;10.81;58.44;98275.06;4931167;29;20038;-83
2021/01/21 04:52:03;;;;;;;26.15;8.48;;;;;;;10.57;59.53;98278.16;4928270;29;20380;-83
2021/01/21 04:54:36;;;;;;;17.23;6.75;;;;;;;10.14;59.98;98328.00;4931579;29;20375;-82
2021/01/21 04:57:04;;;;;;;14.80;5.45;;;;;;;10.29;60.13;98344.47;4924131;29;20062;-81
2021/01/21 04:59:34;;;;;;;16.25;4.60;;;;;;;9.88;61.84;98319.59;4930148;29;20476;-82
2021/01/21 05:02:01;;;;;;;20.77;7.07;;;;;;;9.69;62.55;98327.25;4927949;29;20075;-85
2021/01/21 05:04:26;;;;;;;23.70;7.90;;;;;;;9.66;63.19;98333.97;4926868;29;20039;-84
2021/01/21 05:06:53;;;;;;;23.10;8.27;;;;;;;9.42;63.63;98338.00;4925920;29;20588;-85
2021/01/21 05:09:20;;;;;;;18.20;5.72;;;;;;;9.44;63.12;98368.44;4929092;29;20039;-85
2021/01/21 05:11:46;;;;;;;25.17;9.20;;;;;;;9.62;62.81;98376.28;4931505;29;20077;-86
2021/01/21 05:14:12;;;;;;;26.23;12.77;;;;;;;9.24;62.65;98374.41;4943143;29;20107;-82
2021/01/21 05:16:37;;;;;;;26.23;14.05;;;;;;;9.26;63.39;98373.06;4931018;29;20751;-83
2021/01/21 05:19:03;;;;;;;23.02;10.52;;;;;;;9.35;62.88;98375.38;4929800;29;20035;-83
2021/01/21 05:21:29;;;;;;;18.70;7.07;;;;;;;9.50;62.31;98379.09;4927385;29;20064;-81
2021/01/21 05:23:54;;;;;;;26.77;15.13;;;;;;;9.48;61.81;98397.53;4929323;29;20095;-81
2021/01/21 05:26:21;;;;;;;18.27;11.02;;;;;;;9.35;61.77;98405.19;4930205;29;20036;-85
2021/01/21 05:28:47;;;;;;;15.98;7.10;;;;;;;9.53;61.22;98393.22;4927261;29;20149;-84
2021/01/21 05:31:13;;;;;;;23.70;11.68;;;;;;;9.43;60.57;98412.91;4927273;29;20095;-84
2021/01/21 05:33:39;;;;;;;20.52;9.98;;;;;;;9.58;60.27;98418.56;4930158;29;20035;-84
2021/01/21 05:36:06;;;;;;;23.83;9.23;;;;;;;9.53;60.41;98428.50;4926436;29;20455;-80
2021/01/21 05:38:31;;;;;;;16.10;9.00;;;;;;;9.50;59.79;98429.84;4927558;29;20097;-84
2021/01/21 05:40:58;;;;;;;18.25;8.88;;;;;;;9.62;59.90;98444.13;4928305;29;20032;-84
2021/01/21 05:43:23;;;;;;;22.60;10.73;;;;;;;9.72;60.78;98445.34;4925841;29;20028;-83
2021/01/21 05:45:50;;;;;;;31.23;10.50;;;;;;;9.93;59.98;98455.41;4928314;29;20055;-83
2021/01/21 05:48:16;;;;;;;26.30;9.63;;;;;;;10.04;59.17;98457.16;4928991;29;20028;-84
2021/01/21 05:50:42;;;;;;;24.25;8.55;;;;;;;9.95;59.63;98485.00;4930121;29;20027;-83
2021/01/21 05:53:09;;;;;;;29.23;12.95;;;;;;;10.03;58.98;98471.00;4927632;29;20380;-83
2021/01/21 05:55:40;;;;;;;23.85;10.85;;;;;;;9.87;58.84;98480.84;4925961;29;20058;-83
2021/01/21 05:58:06;;;;;;;20.45;9.00;;;;;;;9.93;58.33;98479.00;4928491;29;20042;-83
2021/01/21 06:00:33;;;;;;;16.75;8.00;;;;;;;9.97;57.73;98499.97;4928687;29;20034;-85
2021/01/21 06:02:59;;;;;;;19.23;9.63;;;;;;;10.02;58.04;98504.66;4927283;29;20028;-83
2021/01/21 06:05:25;;;;;;;21.20;7.32;;;;;;;9.98;57.38;98509.75;4922263;29;20050;-85
2021/01/21 06:07:51;;;;;;;22.02;9.27;;;;;;;9.68;58.05;98508.25;4926609;29;20114;-84
2021/01/21 06:10:19;;;;;;;21.05;9.45;;;;;;;9.68;57.40;98508.25;4927238;29;20509;-82
2021/01/21 06:12:51;;;;;;;21.42;7.97;;;;;;;9.92;56.34;98507.25;4928077;29;20039;-85
2021/01/21 06:15:18;;;;;;;19.00;11.00;;;;;;;9.78;57.08;98525.78;4928197;29;20069;-82
2021/01/21 06:17:45;;;;;;;25.65;11.50;;;;;;;9.75;57.80;98540.66;4927841;29;20036;-83
2021/01/21 06:20:12;;;;;;;24.92;10.50;;;;;;;9.61;57.75;98559.16;4931346;29;20039;-83
2021/01/21 06:22:45;;;;;;;30.42;12.90;;;;;;;9.75;57.30;98553.41;4929760;29;20042;-82
2021/01/21 06:25:21;;;;;;;24.08;13.35;;;;;;;9.93;56.59;98558.56;4926986;29;20063;-83
2021/01/21 06:27:47;;;;;;;23.08;12.43;;;;;;;9.98;57.12;98569.50;4925702;29;20548;-83
2021/01/21 06:30:20;;;;;;;27.65;9.23;;;;;;;9.91;57.91;98568.84;4928253;29;20027;-84
2021/01/21 06:32:48;;;;;;;25.83;9.43;;;;;;;9.75;57.52;98578.66;4922735;29;20230;-80
2021/01/21 06:35:19;;;;;;;24.88;8.88;;;;;;;9.84;57.16;98577.16;4922834;29;20020;-86
2021/01/21 06:37:49;;;;;;;27.88;12.77;;;;;;;10.16;56.84;98592.84;4928774;29;20027;-82
2021/01/21 06:40:15;;;;;;;20.30;10.80;;;;;;;9.89;56.88;98600.84;4928458;29;20043;-82
2021/01/21 06:43:06;;;;;;;19.30;6.78;;;;;;;10.14;56.61;98599.59;4929515;29;20502;-81
2021/01/21 06:45:34;;;;;;;23.88;11.13;;;;;;;10.02;57.22;98605.97;4944178;29;20394;-81
2021/01/21 06:47:59;;;;;;;23.50;9.80;;;;;;;9.96;56.84;98609.66;4927346;29;20063;-82
2021/01/21 06:50:31;;;;;;;25.00;9.13;;;;;;;9.71;56.71;98620.09;4927287;29;20084;-82
2021/01/21 06:53:04;;;;;;;17.77;10.20;;;;;;;9.72;56.61;98625.28;4930424;29;20036;-80
2021/01/21 06:55:31;;;;;;;27.80;13.30;;;;;;;10.14;55.82;98624.84;4926497;29;20028;-82
2021/01/21 06:57:56;;;;;;;25.75;13.13;;;;;;;9.86;55.89;98653.75;4929160;29;20031;-83
2021/01/21 07:00:34;;;;;;;21.48;10.50;;;;;;;9.68;55.12;98638.53;4926073;29;20046;-83
2021/01/21 07:02:59;;;;;;;23.40;8.60;;;;;;;9.79;54.99;98642.25;4928412;29;20075;-81
2021/01/21 07:05:25;;;;;;;19.27;8.02;;;;;;;9.85;55.00;98641.25;4926469;29;20067;-84
2021/01/21 07:07:54;;;;;;;20.77;7.80;;;;;;;9.61;55.99;98656.03;4925008;29;20111;-82
2021/01/21 07:10:45;;;;;;;20.85;10.07;;;;;;;9.83;56.03;98662.38;4922424;29;20031;-81
2021/01/21 07:13:16;;;;;;;21.42;8.18;;;;;;;9.83;56.37;98669.72;4931086;29;20034;-82
2021/01/21 07:15:43;;;;;;;16.80;7.65;;;;;;;9.85;55.81;98668.41;4922005;29;20043;-82
2021/01/21 07:18:18;;;;;;;25.40;9.00;;;;;;;9.74;55.86;98671.19;4930842;29;20035;-82
2021/01/21 07:21:16;;;;;;;25.25;11.35;;;;;;;9.79;55.38;98677.53;4937442;29;20017;-82
2021/01/21 07:23:43;;;;;;;17.25;7.18;;;;;;;9.99;54.87;98678.94;4926263;29;20043;-84
2021/01/21 07:26:18;;;;;;;30.58;7.47;;;;;;;9.95;55.80;98692.19;4922706;29;20573;-83
2021/01/21 07:29:17;;;;;;;32.83;8.80;;;;;;;10.13;55.65;98703.88;4927897;29;20110;-83
2021/01/21 07:31:51;;;;;;;19.88;6.63;;;;;;;10.04;55.80;98698.84;4912315;29;20058;-84
2021/01/21 07:34:35;;;;;;;17.92;5.70;;;;;;;10.00;55.23;98708.56;4927805;29;20055;-83
2021/01/21 07:37:42;;;;;;;24.85;7.32;;;;;;;9.80;56.36;98700.88;4937875;29;20454;-82
2021/01/21 07:40:12;;;;;;;18.92;7.45;;;;;;;9.75;55.79;98711.66;4916055;29;20130;-81
2021/01/21 07:42:37;;;;;;;17.88;6.68;;;;;;;9.84;55.34;98722.94;4925143;29;20043;-82
2021/01/21 07:45:08;;;;;;;21.77;7.15;;;;;;;9.84;55.52;98720.22;4928360;29;20044;-81
2021/01/21 07:47:38;;;;;;;23.15;9.70;;;;;;;10.08;55.31;98726.34;4922859;29;20024;-82
2021/01/21 07:50:19;;;;;;;18.67;10.87;;;;;;;9.84;55.63;98722.94;4928889;29;20503;-83
2021/01/21 07:52:44;;;;;;;18.33;11.03;;;;;;;9.95;55.23;98732.91;4922235;29;20044;-81
2021/01/21 07:55:11;;;;;;;16.92;9.10;;;;;;;9.91;55.39;98733.66;4923285;29;20550;-82
2021/01/21 07:57:37;;;;;;;24.00;8.52;;;;;;;9.70;55.83;98741.44;4925843;29;20078;-86
2021/01/21 08:00:08;;;;;;;28.42;10.55;;;;;;;9.89;55.70;98752.91;4923280;29;20534;-83
2021/01/21 08:02:50;;;;;;;27.60;12.60;;;;;;;9.86;56.06;98750.66;4929730;29;20043;-82
2021/01/21 08:05:17;;;;;;;22.02;9.57;;;;;;;10.08;55.41;98749.97;4925905;29;20554;-82
2021/01/21 08:07:53;;;;;;;23.90;10.20;;;;;;;10.25;55.75;98758.13;4931826;29;20102;-82
2021/01/21 08:10:20;;;;;;;19.85;11.13;;;;;;;9.90;56.02;98759.13;4930131;29;20768;-83
2021/01/21 08:13:03;;;;;;;27.70;14.55;;;;;;;9.97;56.23;98754.38;4925023;29;20035;-82
2021/01/21 08:15:31;;;;;;;18.52;10.10;;;;;;;9.96;56.25;98767.16;4927398;29;20048;-81
2021/01/21 08:17:57;;;;;;;22.33;11.27;;;;;;;10.31;55.52;98762.56;4929113;29;20482;-85
2021/01/21 08:20:25;;;;;;;24.42;11.30;;;;;;;10.53;55.31;98766.25;4926414;29;20067;-85
2021/01/21 08:22:51;;;;;;;25.63;7.25;;;;;;;10.47;55.21;98780.81;4928766;29;20034;-83
2021/01/21 08:25:17;;;;;;;14.65;7.57;;;;;;;10.59;55.04;98769.84;4927658;29;20429;-84
2021/01/21 08:27:44;;;;;;;20.33;8.35;;;;;;;10.76;54.89;98758.97;4928671;29;20644;-85
2021/01/21 08:30:17;;;;;;;21.92;13.48;;;;;;;10.93;54.68;98772.53;4922748;29;20120;-85
2021/01/21 08:32:44;;;;;;;21.13;10.73;;;;;;;11.18;53.93;98760.34;4928385;29;20493;-84
2021/01/21 08:35:16;;;;;;;25.35;11.27;;;;;;;11.27;53.35;98767.00;4923964;29;20196;-80
2021/01/21 08:37:43;;;;;;;23.02;7.55;;;;;;;12.09;50.99;98756.22;4923334;29;20095;-83
2021/01/21 08:40:09;;;;;;;17.25;9.68;;;;;;;12.54;49.44;98765.88;4926469;29;20048;-83
2021/01/21 08:42:35;;;;;;;15.07;6.63;;;;;;;12.74;48.68;98759.75;4925479;29;20041;-82
2021/01/21 08:45:01;;;;;;;22.40;8.32;;;;;;;13.12;47.81;98771.44;4928834;29;20047;-83
2021/01/21 08:47:39;;;;;;;23.98;8.13;;;;;;;13.62;47.13;98763.78;4927170;29;20036;-83
2021/01/21 08:50:05;;;;;;;19.15;8.50;;;;;;;14.02;45.72;98769.63;4927722;29;20462;-84
2021/01/21 08:52:30;;;;;;;20.65;6.95;;;;;;;14.29;44.95;98767.47;4921876;29;20733;-86
2021/01/21 08:54:56;;;;;;;16.15;5.82;;;;;;;14.35;45.61;98775.69;4940970;29;20044;-84
2021/01/21 08:57:23;;;;;;;22.77;6.53;;;;;;;14.57;44.50;98761.75;4911932;29;20038;-85
2021/01/21 08:59:48;;;;;;;21.27;5.68;;;;;;;14.99;43.92;98775.13;4927650;29;20122;-85
2021/01/21 09:02:14;;;;;;;20.75;6.57;;;;;;;15.32;42.95;98772.03;4929306;29;20466;-83
2021/01/21 09:04:41;;;;;;;19.08;5.05;;;;;;;15.70;42.37;98772.44;4923641;29;20089;-85
2021/01/21 09:07:08;;;;;;;12.18;4.25;;;;;;;16.24;40.24;98757.06;4928436;29;20036;-84
2021/01/21 09:09:35;;;;;;;17.02;4.50;;;;;;;16.50;39.47;98765.91;4926698;29;20031;-84
2021/01/21 09:12:22;;;;;;;12.93;4.60;;;;;;;16.33;39.51;98779.19;4923905;29;20039;-82
2021/01/21 09:15:07;;;;;;;18.15;5.15;;;;;;;15.07;42.85;98776.47;4924153;29;20032;-84
2021/01/21 09:17:34;;;;;;;25.10;5.53;;;;;;;14.61;43.35;98779.28;4924422;29;20036;-84
2021/01/21 09:20:00;;;;;;;16.65;4.03;;;;;;;13.74;45.47;98769.00;4928226;29;20079;-85
2021/01/21 09:22:38;;;;;;;16.58;5.50;;;;;;;13.57;45.71;98771.97;4924924;29;20608;-83
2021/01/21 09:25:08;;;;;;;24.40;6.93;;;;;;;12.92;47.34;98766.69;4928148;29;20110;-84
2021/01/21 09:27:38;;;;;;;22.42;6.35;;;;;;;12.65;48.60;98772.22;4925262;29;20427;-85
2021/01/21 09:30:11;;;;;;;20.85;6.10;;;;;;;12.48;49.19;98775.09;4924649;29;20118;-82
2021/01/21 09:32:41;;;;;;;25.40;7.30;;;;;;;12.12;50.02;98763.88;4927350;29;20091;-85
2021/01/21 09:35:14;;;;;;;22.08;7.30;;;;;;;11.76;51.48;98772.50;4927021;29;20028;-83
2021/01/21 09:37:53;;;;;;;23.95;7.20;;;;;;;11.61;52.29;98792.19;4924680;29;20554;-85
2021/01/21 09:40:23;;;;;;;26.85;7.72;;;;;;;11.55;53.27;98787.75;4927714;29;20027;-85
2021/01/21 09:42:49;;;;;;;25.25;8.20;;;;;;;11.77;53.22;98795.94;4927355;29;20023;-84
2021/01/21 09:45:16;;;;;;;28.80;8.15;;;;;;;11.65;52.69;98804.22;4925177;29;20042;-85
2021/01/21 09:47:41;;;;;;;24.05;8.85;;;;;;;11.78;52.61;98802.19;4927489;29;20810;-84
2021/01/21 09:50:09;;;;;;;30.25;8.02;;;;;;;11.89;52.23;98811.28;4928314;29;20024;-84
2021/01/21 09:52:35;;;;;;;13.32;6.00;;;;;;;11.50;52.65;98806.75;4925101;29;20039;-83
2021/01/21 09:55:03;;;;;;;18.85;8.20;;;;;;;11.71;51.85;98802.41;4926575;29;20538;-85
2021/01/21 09:57:29;;;;;;;15.70;10.20;;;;;;;11.95;51.60;98813.84;4927240;29;20534;-87
2021/01/21 09:59:54;;;;;;;20.13;8.68;;;;;;;11.97;50.94;98808.13;4923376;29;20031;-86
2021/01/21 10:02:21;;;;;;;17.60;6.70;;;;;;;11.97;51.12;98819.88;4927028;29;20486;-86
2021/01/21 10:04:47;;;;;;;19.35;7.57;;;;;;;12.47;50.77;98820.63;4943135;29;20040;-87
2021/01/21 10:07:15;;;;;;;21.42;5.60;;;;;;;13.46;47.73;98809.34;4927922;29;20047;-85
2021/01/21 10:09:40;;;;;;;18.23;6.22;;;;;;;13.50;48.00;98807.72;4916100;29;20119;-85
2021/01/21 10:12:07;;;;;;;13.73;8.02;;;;;;;13.95;46.79;98800.78;4925947;29;20066;-85
2021/01/21 10:14:33;;;;;;;13.80;7.38;;;;;;;13.74;47.07;98799.06;4927083;29;20116;-86
2021/01/21 10:16:59;;;;;;;11.60;6.38;;;;;;;13.76;46.96;98796.88;4926335;29;20108;-87
2021/01/21 10:19:25;;;;;;;18.33;12.07;;;;;;;13.30;47.33;98796.66;4943933;28;20031;-86
2021/01/21 10:21:50;;;;;;;17.85;7.47;;;;;;;13.29;48.39;98805.94;4924661;29;20032;-83
2021/01/21 10:24:16;;;;;;;22.65;6.60;;;;;;;12.77;49.04;98796.59;4923040;29;20043;-84
2021/01/21 10:26:41;;;;;;;17.65;6.65;;;;;;;12.74;49.41;98800.66;4924831;29;20127;-83
2021/01/21 10:29:07;;;;;;;14.07;5.50;;;;;;;12.24;50.53;98804.63;4925220;29;20648;-83
2021/01/21 10:31:33;;;;;;;16.20;5.18;;;;;;;12.31;50.74;98814.22;4925786;29;20064;-85
2021/01/21 10:33:58;;;;;;;16.70;4.95;;;;;;;11.98;51.32;98801.63;4924920;29;20046;-85
2021/01/21 10:36:24;;;;;;;14.50;6.57;;;;;;;12.21;51.38;98803.22;4912638;29;20384;-86
2021/01/21 10:38:50;;;;;;;16.33;7.47;;;;;;;11.94;52.13;98805.94;4922930;29;20131;-86
2021/01/21 10:41:15;;;;;;;19.42;6.18;;;;;;;11.91;52.45;98817.31;4927136;29;20039;-87
2021/01/21 10:43:41;;;;;;;16.02;6.20;;;;;;;11.99;52.86;98815.00;4928373;29;20494;-87
2021/01/21 10:46:06;;;;;;;16.60;7.20;;;;;;;11.96;52.54;98807.31;4926516;29;20589;-82
2021/01/21 10:48:31;;;;;;;16.92;7.95;;;;;;;11.73;53.23;98794.78;4925685;29;20663;-85
2021/01/21 10:50:57;;;;;;;12.90;7.30;;;;;;;12.35;52.43;98806.34;4925187;29;20039;-85
2021/01/21 10:53:22;;;;;;;17.15;9.45;;;;;;;12.24;52.90;98797.25;4923698;29;20055;-86
2021/01/21 10:55:48;;;;;;;14.93;10.95;;;;;;;11.79;53.54;98801.94;4925801;29;20085;-86
2021/01/21 10:58:17;;;;;;;20.30;13.57;;;;;;;11.54;54.58;98810.63;4926090;29;20046;-84
2021/01/21 11:00:46;;;;;;;18.77;9.52;;;;;;;11.47;55.42;98812.72;4924902;29;20035;-86
2021/01/21 11:03:13;;;;;;;16.75;7.97;;;;;;;11.38;55.40;98806.88;4925019;29;20044;-84
2021/01/21 11:05:40;;;;;;;15.65;8.85;;;;;;;11.04;56.44;98806.94;4926385;29;20114;-83
2021/01/21 11:08:07;;;;;;;16.70;6.80;;;;;;;11.84;55.68;98822.97;4923031;29;20040;-84
2021/01/21 11:10:32;;;;;;;15.32;7.13;;;;;;;12.00;55.43;98794.00;4926387;29;20377;-87
2021/01/21 11:12:58;;;;;;;16.67;5.53;;;;;;;12.16;54.25;98806.72;4927601;29;20474;-84
2021/01/21 11:15:24;;;;;;;11.07;5.75;;;;;;;12.39;53.68;98796.56;4941296;28;20032;-83
2021/01/21 11:17:50;;;;;;;13.45;8.60;;;;;;;12.94;52.57;98804.63;4926505;29;20032;-83
2021/01/21 11:20:16;;;;;;;20.38;9.77;;;;;;;12.77;52.23;98808.31;4919991;29;20056;-86
2021/01/21 11:22:41;;;;;;;16.83;6.10;;;;;;;12.95;52.07;98793.44;4921651;29;20035;-84
2021/01/21 11:25:09;;;;;;;18.05;7.78;;;;;;;12.74;52.56;98808.84;4913806;29;20035;-85
2021/01/21 11:27:35;;;;;;;15.98;7.00;;;;;;;12.34;53.34;98805.53;4924733;29;20051;-86
2021/01/21 11:30:08;;;;;;;15.77;10.25;;;;;;;11.91;55.59;98806.41;4929085;29;20036;-82
2021/01/21 11:32:33;;;;;;;21.45;11.15;;;;;;;11.56;58.08;98815.81;4927651;29;20056;-82
2021/01/21 11:34:59;;;;;;;17.00;9.48;;;;;;;11.14;60.12;98797.28;4927429;29;20032;-82